Terminal Aerodrome Forecast
Issued by NWS Cleveland, OH

Home | Current Version | Previous Version | Graphics & Text | Print | Product List | Glossary On
Versions: 1 2 3 4 5 6 7 8 9 10 11 12 13 14 15 16 17 18 19 20 21 22 23
000
FTUS41 KCLE 221140
TAFYNG
TAF
KYNG 221140Z 2212/2312 20006KT P6SM VCSH BKN035 OVC080
      TEMPO 2212/2216 5SM -SHRA OVC025
     FM221600 20008KT P6SM OVC025
     FM230300 18006KT 5SM BR OVC015
     FM230700 20010KT 4SM BR OVC009=

USA.gov is the U.S. government's official web portal to all federal, state and local government web resources and services.